sensor_id;sensor_type;location;lat;lon;timestamp;temperature;humidity
8662;DHT22;29684;47.722;9.388;2023-07-13T00:02:06;17.90;99.90
8662;DHT22;29684;47.722;9.388;2023-07-13T00:04:51;18.00;99.90
8662;DHT22;29684;47.722;9.388;2023-07-13T00:07:36;18.20;99.90
8662;DHT22;29684;47.722;9.388;2023-07-13T00:10:21;18.20;99.90
8662;DHT22;29684;47.722;9.388;2023-07-13T00:13:05;18.10;99.90
8662;DHT22;29684;47.722;9.388;2023-07-13T00:15:49;18.00;99.90
8662;DHT22;29684;47.722;9.388;2023-07-13T00:18:33;18.00;99.90
8662;DHT22;29684;47.722;9.388;2023-07-13T00:21:17;17.90;99.90
8662;DHT22;29684;47.722;9.388;2023-07-13T00:24:02;17.80;99.90
8662;DHT22;29684;47.722;9.388;2023-07-13T00:26:46;17.70;99.90
8662;DHT22;29684;47.722;9.388;2023-07-13T00:29:31;17.60;99.90
8662;DHT22;29684;47.722;9.388;2023-07-13T00:32:17;17.60;99.90
8662;DHT22;29684;47.722;9.388;2023-07-13T00:35:02;17.50;99.90
8662;DHT22;29684;47.722;9.388;2023-07-13T00:37:48;17.50;99.90
8662;DHT22;29684;47.722;9.388;2023-07-13T00:40:32;17.60;99.90
8662;DHT22;29684;47.722;9.388;2023-07-13T00:43:19;17.60;99.90
8662;DHT22;29684;47.722;9.388;2023-07-13T00:46:23;17.60;99.90
8662;DHT22;29684;47.722;9.388;2023-07-13T00:49:12;17.70;99.90
8662;DHT22;29684;47.722;9.388;2023-07-13T00:52:00;17.80;99.90
8662;DHT22;29684;47.722;9.388;2023-07-13T00:54:47;17.70;99.90
8662;DHT22;29684;47.722;9.388;2023-07-13T00:57:32;17.70;99.90
8662;DHT22;29684;47.722;9.388;2023-07-13T01:00:18;17.60;99.90
8662;DHT22;29684;47.722;9.388;2023-07-13T01:03:04;18.00;99.90
8662;DHT22;29684;47.722;9.388;2023-07-13T01:05:49;18.20;99.90
8662;DHT22;29684;47.722;9.388;2023-07-13T01:08:34;18.20;99.90
8662;DHT22;29684;47.722;9.388;2023-07-13T01:11:20;18.10;99.90
8662;DHT22;29684;47.722;9.388;2023-07-13T01:14:05;18.00;99.90
8662;DHT22;29684;47.722;9.388;2023-07-13T01:16:50;18.00;99.90
8662;DHT22;29684;47.722;9.388;2023-07-13T01:19:45;18.00;99.90
8662;DHT22;29684;47.722;9.388;2023-07-13T01:22:29;17.90;99.90
8662;DHT22;29684;47.722;9.388;2023-07-13T01:25:13;17.90;99.90
8662;DHT22;29684;47.722;9.388;2023-07-13T01:27:57;18.10;99.90
8662;DHT22;29684;47.722;9.388;2023-07-13T01:30:41;18.10;99.90
8662;DHT22;29684;47.722;9.388;2023-07-13T01:33:29;18.20;99.90
8662;DHT22;29684;47.722;9.388;2023-07-13T01:36:13;18.20;99.90
8662;DHT22;29684;47.722;9.388;2023-07-13T01:38:57;18.20;99.90
8662;DHT22;29684;47.722;9.388;2023-07-13T01:41:42;18.10;99.90
8662;DHT22;29684;47.722;9.388;2023-07-13T01:44:26;18.00;99.90
8662;DHT22;29684;47.722;9.388;2023-07-13T01:47:11;17.80;99.90
8662;DHT22;29684;47.722;9.388;2023-07-13T01:49:55;17.70;99.90
8662;DHT22;29684;47.722;9.388;2023-07-13T01:52:39;17.60;99.90
8662;DHT22;29684;47.722;9.388;2023-07-13T01:55:24;17.50;99.90
8662;DHT22;29684;47.722;9.388;2023-07-13T01:58:08;17.50;99.90
8662;DHT22;29684;47.722;9.388;2023-07-13T02:00:52;17.40;99.90
8662;DHT22;29684;47.722;9.388;2023-07-13T02:03:36;17.40;99.90
8662;DHT22;29684;47.722;9.388;2023-07-13T02:06:20;17.50;99.90
8662;DHT22;29684;47.722;9.388;2023-07-13T02:09:04;17.60;99.90
8662;DHT22;29684;47.722;9.388;2023-07-13T02:11:48;17.60;99.90
8662;DHT22;29684;47.722;9.388;2023-07-13T02:14:32;17.70;99.90
8662;DHT22;29684;47.722;9.388;2023-07-13T02:17:16;17.60;99.90
8662;DHT22;29684;47.722;9.388;2023-07-13T02:20:01;17.60;99.90
8662;DHT22;29684;47.722;9.388;2023-07-13T02:22:45;17.50;99.90
8662;DHT22;29684;47.722;9.388;2023-07-13T02:25:29;17.50;99.90
8662;DHT22;29684;47.722;9.388;2023-07-13T02:28:14;17.50;99.90
8662;DHT22;29684;47.722;9.388;2023-07-13T02:31:08;17.50;99.90
8662;DHT22;29684;47.722;9.388;2023-07-13T02:33:52;17.40;99.90
8662;DHT22;29684;47.722;9.388;2023-07-13T02:36:36;17.30;99.90
8662;DHT22;29684;47.722;9.388;2023-07-13T02:39:20;17.30;99.90
8662;DHT22;29684;47.722;9.388;2023-07-13T02:42:05;17.30;99.90
8662;DHT22;29684;47.722;9.388;2023-07-13T02:44:49;17.20;99.90
8662;DHT22;29684;47.722;9.388;2023-07-13T02:47:35;17.30;99.90
8662;DHT22;29684;47.722;9.388;2023-07-13T02:50:19;17.40;99.90
8662;DHT22;29684;47.722;9.388;2023-07-13T02:53:04;17.60;99.90
8662;DHT22;29684;47.722;9.388;2023-07-13T02:55:48;17.50;99.90
8662;DHT22;29684;47.722;9.388;2023-07-13T02:58:32;17.50;99.90
8662;DHT22;29684;47.722;9.388;2023-07-13T03:01:16;17.50;99.90
8662;DHT22;29684;47.722;9.388;2023-07-13T03:04:03;17.60;99.90
8662;DHT22;29684;47.722;9.388;2023-07-13T03:06:47;17.50;99.90
8662;DHT22;29684;47.722;9.388;2023-07-13T03:09:33;17.70;99.90
8662;DHT22;29684;47.722;9.388;2023-07-13T03:12:17;17.60;99.90
8662;DHT22;29684;47.722;9.388;2023-07-13T03:15:01;17.60;99.90
8662;DHT22;29684;47.722;9.388;2023-07-13T03:17:46;17.70;99.90
8662;DHT22;29684;47.722;9.388;2023-07-13T03:20:33;17.60;99.90
8662;DHT22;29684;47.722;9.388;2023-07-13T03:23:17;17.60;99.90
8662;DHT22;29684;47.722;9.388;2023-07-13T03:26:10;17.70;99.90
8662;DHT22;29684;47.722;9.388;2023-07-13T03:28:56;17.70;99.90
8662;DHT22;29684;47.722;9.388;2023-07-13T03:31:40;17.70;99.90
8662;DHT22;29684;47.722;9.388;2023-07-13T03:34:24;17.70;99.90
8662;DHT22;29684;47.722;9.388;2023-07-13T03:37:09;17.70;99.90
8662;DHT22;29684;47.722;9.388;2023-07-13T03:39:53;17.80;99.90
8662;DHT22;29684;47.722;9.388;2023-07-13T03:42:38;17.70;99.90
8662;DHT22;29684;47.722;9.388;2023-07-13T03:45:22;17.80;99.90
8662;DHT22;29684;47.722;9.388;2023-07-13T03:48:06;17.90;99.90
8662;DHT22;29684;47.722;9.388;2023-07-13T03:50:50;17.90;99.90
8662;DHT22;29684;47.722;9.388;2023-07-13T03:53:38;18.00;99.90
8662;DHT22;29684;47.722;9.388;2023-07-13T03:56:23;17.90;99.90
8662;DHT22;29684;47.722;9.388;2023-07-13T03:59:07;18.00;99.90
8662;DHT22;29684;47.722;9.388;2023-07-13T04:01:51;18.00;99.90
8662;DHT22;29684;47.722;9.388;2023-07-13T04:04:35;18.00;99.90
8662;DHT22;29684;47.722;9.388;2023-07-13T04:07:19;18.00;99.90
8662;DHT22;29684;47.722;9.388;2023-07-13T04:10:03;18.20;99.90
8662;DHT22;29684;47.722;9.388;2023-07-13T04:12:48;18.30;99.90
8662;DHT22;29684;47.722;9.388;2023-07-13T04:15:32;18.20;99.90
8662;DHT22;29684;47.722;9.388;2023-07-13T04:18:17;18.10;99.90
8662;DHT22;29684;47.722;9.388;2023-07-13T04:21:01;18.00;99.90
8662;DHT22;29684;47.722;9.388;2023-07-13T04:23:46;18.10;99.90
8662;DHT22;29684;47.722;9.388;2023-07-13T04:26:30;18.10;99.90
8662;DHT22;29684;47.722;9.388;2023-07-13T04:29:20;18.20;99.90
8662;DHT22;29684;47.722;9.388;2023-07-13T04:32:04;18.20;99.90
8662;DHT22;29684;47.722;9.388;2023-07-13T04:34:48;18.30;99.90
8662;DHT22;29684;47.722;9.388;2023-07-13T04:37:36;18.30;99.90
8662;DHT22;29684;47.722;9.388;2023-07-13T04:40:20;18.60;99.90
8662;DHT22;29684;47.722;9.388;2023-07-13T04:43:04;18.80;99.90
8662;DHT22;29684;47.722;9.388;2023-07-13T04:45:49;18.70;99.90
8662;DHT22;29684;47.722;9.388;2023-07-13T04:48:34;18.60;99.90
8662;DHT22;29684;47.722;9.388;2023-07-13T04:51:18;18.70;99.90
8662;DHT22;29684;47.722;9.388;2023-07-13T04:54:02;18.50;99.90
8662;DHT22;29684;47.722;9.388;2023-07-13T04:56:48;18.50;99.90
8662;DHT22;29684;47.722;9.388;2023-07-13T04:59:33;18.30;99.90
8662;DHT22;29684;47.722;9.388;2023-07-13T05:02:18;18.20;99.90
8662;DHT22;29684;47.722;9.388;2023-07-13T05:05:05;18.20;99.90
8662;DHT22;29684;47.722;9.388;2023-07-13T05:07:49;18.30;99.90
8662;DHT22;29684;47.722;9.388;2023-07-13T05:10:34;18.60;99.90
8662;DHT22;29684;47.722;9.388;2023-07-13T05:13:19;18.80;99.90
8662;DHT22;29684;47.722;9.388;2023-07-13T05:16:05;18.90;99.90
8662;DHT22;29684;47.722;9.388;2023-07-13T05:18:53;19.00;99.90
8662;DHT22;29684;47.722;9.388;2023-07-13T05:21:38;19.20;99.90
8662;DHT22;29684;47.722;9.388;2023-07-13T05:24:23;18.90;99.90
8662;DHT22;29684;47.722;9.388;2023-07-13T05:27:07;18.90;99.90
8662;DHT22;29684;47.722;9.388;2023-07-13T05:29:51;18.80;99.90
8662;DHT22;29684;47.722;9.388;2023-07-13T05:32:36;18.70;99.90
8662;DHT22;29684;47.722;9.388;2023-07-13T05:35:20;18.80;99.90
8662;DHT22;29684;47.722;9.388;2023-07-13T05:38:04;18.80;99.90
8662;DHT22;29684;47.722;9.388;2023-07-13T05:40:50;18.90;99.90
8662;DHT22;29684;47.722;9.388;2023-07-13T05:43:35;18.90;99.90
8662;DHT22;29684;47.722;9.388;2023-07-13T05:46:19;18.70;99.90
8662;DHT22;29684;47.722;9.388;2023-07-13T05:49:03;18.70;99.90
8662;DHT22;29684;47.722;9.388;2023-07-13T05:51:47;18.90;99.90
8662;DHT22;29684;47.722;9.388;2023-07-13T05:54:31;19.00;99.90
8662;DHT22;29684;47.722;9.388;2023-07-13T05:57:15;19.10;99.90
8662;DHT22;29684;47.722;9.388;2023-07-13T05:59:59;19.40;99.90
8662;DHT22;29684;47.722;9.388;2023-07-13T06:02:43;19.20;99.90
8662;DHT22;29684;47.722;9.388;2023-07-13T06:05:27;19.20;99.90
8662;DHT22;29684;47.722;9.388;2023-07-13T06:08:12;19.30;99.90
8662;DHT22;29684;47.722;9.388;2023-07-13T06:11:03;19.40;99.90
8662;DHT22;29684;47.722;9.388;2023-07-13T06:13:47;19.40;99.90
8662;DHT22;29684;47.722;9.388;2023-07-13T06:16:31;19.50;99.90
8662;DHT22;29684;47.722;9.388;2023-07-13T06:19:15;19.40;99.90
8662;DHT22;29684;47.722;9.388;2023-07-13T06:22:00;19.50;99.90
8662;DHT22;29684;47.722;9.388;2023-07-13T06:24:44;19.30;99.90
8662;DHT22;29684;47.722;9.388;2023-07-13T06:27:28;19.10;99.90
8662;DHT22;29684;47.722;9.388;2023-07-13T06:30:12;19.40;99.90
8662;DHT22;29684;47.722;9.388;2023-07-13T06:32:57;19.50;99.90
8662;DHT22;29684;47.722;9.388;2023-07-13T06:35:41;19.30;99.90
8662;DHT22;29684;47.722;9.388;2023-07-13T06:38:26;19.40;99.90
8662;DHT22;29684;47.722;9.388;2023-07-13T06:41:10;19.50;99.90
8662;DHT22;29684;47.722;9.388;2023-07-13T06:43:54;19.60;99.90
8662;DHT22;29684;47.722;9.388;2023-07-13T06:46:39;19.50;99.90
8662;DHT22;29684;47.722;9.388;2023-07-13T06:49:22;19.60;99.90
8662;DHT22;29684;47.722;9.388;2023-07-13T06:52:07;19.30;99.90
8662;DHT22;29684;47.722;9.388;2023-07-13T06:54:50;19.40;99.90
8662;DHT22;29684;47.722;9.388;2023-07-13T06:57:35;19.20;99.90
8662;DHT22;29684;47.722;9.388;2023-07-13T07:00:19;19.00;99.90
8662;DHT22;29684;47.722;9.388;2023-07-13T07:03:03;18.90;99.90
8662;DHT22;29684;47.722;9.388;2023-07-13T07:05:47;19.00;99.90
8662;DHT22;29684;47.722;9.388;2023-07-13T07:08:31;19.30;99.90
8662;DHT22;29684;47.722;9.388;2023-07-13T07:11:21;19.30;99.90
8662;DHT22;29684;47.722;9.388;2023-07-13T07:14:09;19.00;99.90
8662;DHT22;29684;47.722;9.388;2023-07-13T07:16:53;18.90;99.90
8662;DHT22;29684;47.722;9.388;2023-07-13T07:19:38;19.00;99.90
8662;DHT22;29684;47.722;9.388;2023-07-13T07:22:23;19.10;99.90
8662;DHT22;29684;47.722;9.388;2023-07-13T07:25:10;19.00;99.90
8662;DHT22;29684;47.722;9.388;2023-07-13T07:27:54;18.90;99.90
8662;DHT22;29684;47.722;9.388;2023-07-13T07:30:42;18.70;99.90
8662;DHT22;29684;47.722;9.388;2023-07-13T07:33:27;18.60;99.90
8662;DHT22;29684;47.722;9.388;2023-07-13T07:36:11;18.60;99.90
8662;DHT22;29684;47.722;9.388;2023-07-13T07:38:56;18.50;99.90
8662;DHT22;29684;47.722;9.388;2023-07-13T07:41:40;18.70;99.90
8662;DHT22;29684;47.722;9.388;2023-07-13T07:44:24;18.50;99.90
8662;DHT22;29684;47.722;9.388;2023-07-13T07:47:09;18.40;99.90
8662;DHT22;29684;47.722;9.388;2023-07-13T07:49:53;18.50;99.90
8662;DHT22;29684;47.722;9.388;2023-07-13T07:52:37;18.40;99.90
8662;DHT22;29684;47.722;9.388;2023-07-13T07:55:22;18.30;99.90
8662;DHT22;29684;47.722;9.388;2023-07-13T07:58:07;18.20;99.90
8662;DHT22;29684;47.722;9.388;2023-07-13T08:00:51;18.20;99.90
8662;DHT22;29684;47.722;9.388;2023-07-13T08:03:35;18.30;99.90
8662;DHT22;29684;47.722;9.388;2023-07-13T08:06:19;18.20;99.90
8662;DHT22;29684;47.722;9.388;2023-07-13T08:09:04;18.60;99.90
8662;DHT22;29684;47.722;9.388;2023-07-13T08:11:48;18.80;99.90
8662;DHT22;29684;47.722;9.388;2023-07-13T08:14:32;19.30;99.90
8662;DHT22;29684;47.722;9.388;2023-07-13T08:17:16;19.60;99.90
8662;DHT22;29684;47.722;9.388;2023-07-13T08:20:01;19.30;99.90
8662;DHT22;29684;47.722;9.388;2023-07-13T08:22:45;19.10;99.90
8662;DHT22;29684;47.722;9.388;2023-07-13T08:25:30;19.00;99.90
8662;DHT22;29684;47.722;9.388;2023-07-13T08:28:14;19.20;99.90
8662;DHT22;29684;47.722;9.388;2023-07-13T08:31:03;19.30;99.90
8662;DHT22;29684;47.722;9.388;2023-07-13T08:33:47;19.00;99.90
8662;DHT22;29684;47.722;9.388;2023-07-13T08:36:31;18.80;99.90
8662;DHT22;29684;47.722;9.388;2023-07-13T08:39:15;19.20;99.90
8662;DHT22;29684;47.722;9.388;2023-07-13T08:42:05;19.40;99.90
8662;DHT22;29684;47.722;9.388;2023-07-13T08:48:21;19.50;99.90
8662;DHT22;29684;47.722;9.388;2023-07-13T08:57:15;19.60;99.90
8662;DHT22;29684;47.722;9.388;2023-07-13T08:59:59;19.60;99.90
8662;DHT22;29684;47.722;9.388;2023-07-13T09:02:55;20.00;99.90
8662;DHT22;29684;47.722;9.388;2023-07-13T09:05:41;20.40;99.90
8662;DHT22;29684;47.722;9.388;2023-07-13T09:08:47;20.70;99.90
8662;DHT22;29684;47.722;9.388;2023-07-13T09:12:28;20.90;99.90
8662;DHT22;29684;47.722;9.388;2023-07-13T09:18:16;21.20;99.90
8662;DHT22;29684;47.722;9.388;2023-07-13T09:21:16;21.10;99.90
8662;DHT22;29684;47.722;9.388;2023-07-13T09:27:22;20.70;99.90
8662;DHT22;29684;47.722;9.388;2023-07-13T09:32:58;20.90;99.90
8662;DHT22;29684;47.722;9.388;2023-07-13T09:35:42;21.20;99.90
8662;DHT22;29684;47.722;9.388;2023-07-13T09:38:29;21.30;99.90
8662;DHT22;29684;47.722;9.388;2023-07-13T09:44:32;21.20;99.90
8662;DHT22;29684;47.722;9.388;2023-07-13T09:47:20;21.40;99.90
8662;DHT22;29684;47.722;9.388;2023-07-13T09:50:14;21.50;99.90
8662;DHT22;29684;47.722;9.388;2023-07-13T09:53:01;22.00;99.90
8662;DHT22;29684;47.722;9.388;2023-07-13T09:55:47;21.90;99.90
8662;DHT22;29684;47.722;9.388;2023-07-13T09:58:35;21.60;99.90
8662;DHT22;29684;47.722;9.388;2023-07-13T10:04:19;21.50;99.90
8662;DHT22;29684;47.722;9.388;2023-07-13T10:07:08;21.90;99.90
8662;DHT22;29684;47.722;9.388;2023-07-13T10:09:58;22.10;99.90
8662;DHT22;29684;47.722;9.388;2023-07-13T10:12:44;22.20;99.90
8662;DHT22;29684;47.722;9.388;2023-07-13T10:15:28;22.30;99.90
8662;DHT22;29684;47.722;9.388;2023-07-13T10:18:13;19.80;99.90
8662;DHT22;29684;47.722;9.388;2023-07-13T10:21:14;22.10;99.90
8662;DHT22;29684;47.722;9.388;2023-07-13T10:24:10;21.90;99.90
8662;DHT22;29684;47.722;9.388;2023-07-13T10:29:53;21.90;99.90
8662;DHT22;29684;47.722;9.388;2023-07-13T10:32:40;21.90;99.90
8662;DHT22;29684;47.722;9.388;2023-07-13T10:35:25;21.90;99.90
8662;DHT22;29684;47.722;9.388;2023-07-13T10:38:14;22.00;99.90
8662;DHT22;29684;47.722;9.388;2023-07-13T10:41:03;22.20;99.90
8662;DHT22;29684;47.722;9.388;2023-07-13T10:43:51;22.00;99.90
8662;DHT22;29684;47.722;9.388;2023-07-13T10:46:35;21.90;99.90
8662;DHT22;29684;47.722;9.388;2023-07-13T10:49:20;21.80;99.90
8662;DHT22;29684;47.722;9.388;2023-07-13T10:52:05;21.60;99.90
8662;DHT22;29684;47.722;9.388;2023-07-13T10:54:49;22.00;99.90
8662;DHT22;29684;47.722;9.388;2023-07-13T10:57:42;22.50;99.90
8662;DHT22;29684;47.722;9.388;2023-07-13T11:00:30;22.60;99.90
8662;DHT22;29684;47.722;9.388;2023-07-13T11:03:17;22.70;99.90
8662;DHT22;29684;47.722;9.388;2023-07-13T11:09:18;23.50;99.90
8662;DHT22;29684;47.722;9.388;2023-07-13T11:12:08;23.60;99.90
8662;DHT22;29684;47.722;9.388;2023-07-13T11:20:38;23.70;99.90
8662;DHT22;29684;47.722;9.388;2023-07-13T11:23:29;24.10;99.90
8662;DHT22;29684;47.722;9.388;2023-07-13T11:26:41;24.20;99.90
8662;DHT22;29684;47.722;9.388;2023-07-13T11:32:36;24.20;99.90
8662;DHT22;29684;47.722;9.388;2023-07-13T11:35:26;23.80;99.90
8662;DHT22;29684;47.722;9.388;2023-07-13T11:38:20;23.70;99.90
8662;DHT22;29684;47.722;9.388;2023-07-13T11:41:15;23.80;99.90
8662;DHT22;29684;47.722;9.388;2023-07-13T11:44:18;23.60;99.90
8662;DHT22;29684;47.722;9.388;2023-07-13T11:47:14;25.80;99.90
8662;DHT22;29684;47.722;9.388;2023-07-13T11:49:58;24.40;99.90
8662;DHT22;29684;47.722;9.388;2023-07-13T11:52:44;24.40;99.90
8662;DHT22;29684;47.722;9.388;2023-07-13T11:55:29;24.60;99.90
8662;DHT22;29684;47.722;9.388;2023-07-13T11:58:17;24.60;99.90
8662;DHT22;29684;47.722;9.388;2023-07-13T12:01:03;24.30;99.90
8662;DHT22;29684;47.722;9.388;2023-07-13T12:03:49;24.10;99.90
8662;DHT22;29684;47.722;9.388;2023-07-13T12:06:35;23.70;99.90
8662;DHT22;29684;47.722;9.388;2023-07-13T12:09:27;23.90;99.90
8662;DHT22;29684;47.722;9.388;2023-07-13T12:12:14;24.80;99.90
8662;DHT22;29684;47.722;9.388;2023-07-13T12:14:58;24.70;99.90
8662;DHT22;29684;47.722;9.388;2023-07-13T12:17:43;24.00;99.90
8662;DHT22;29684;47.722;9.388;2023-07-13T12:20:33;24.70;99.90
8662;DHT22;29684;47.722;9.388;2023-07-13T12:23:26;24.40;99.90
8662;DHT22;29684;47.722;9.388;2023-07-13T12:26:12;24.10;99.90
8662;DHT22;29684;47.722;9.388;2023-07-13T12:29:00;24.50;99.90
8662;DHT22;29684;47.722;9.388;2023-07-13T12:31:47;25.10;99.90
8662;DHT22;29684;47.722;9.388;2023-07-13T12:34:32;24.50;99.90
8662;DHT22;29684;47.722;9.388;2023-07-13T12:37:34;25.10;99.90
8662;DHT22;29684;47.722;9.388;2023-07-13T12:40:20;25.70;99.90
8662;DHT22;29684;47.722;9.388;2023-07-13T12:43:12;25.80;99.90
8662;DHT22;29684;47.722;9.388;2023-07-13T12:45:59;25.90;99.90
8662;DHT22;29684;47.722;9.388;2023-07-13T12:48:49;26.60;99.90
8662;DHT22;29684;47.722;9.388;2023-07-13T12:51:33;26.90;99.90
8662;DHT22;29684;47.722;9.388;2023-07-13T12:54:18;26.90;99.90
8662;DHT22;29684;47.722;9.388;2023-07-13T12:57:04;26.90;99.90
8662;DHT22;29684;47.722;9.388;2023-07-13T12:59:53;26.70;99.90
8662;DHT22;29684;47.722;9.388;2023-07-13T13:02:38;26.20;99.90
8662;DHT22;29684;47.722;9.388;2023-07-13T13:05:25;27.10;99.90
8662;DHT22;29684;47.722;9.388;2023-07-13T13:08:11;28.10;99.90
8662;DHT22;29684;47.722;9.388;2023-07-13T13:10:55;26.90;99.90
8662;DHT22;29684;47.722;9.388;2023-07-13T13:13:40;27.40;99.90
8662;DHT22;29684;47.722;9.388;2023-07-13T13:16:34;28.60;99.90
8662;DHT22;29684;47.722;9.388;2023-07-13T13:19:27;29.10;99.90
8662;DHT22;29684;47.722;9.388;2023-07-13T13:22:12;30.30;99.90
8662;DHT22;29684;47.722;9.388;2023-07-13T13:24:56;28.90;99.90
8662;DHT22;29684;47.722;9.388;2023-07-13T13:27:41;27.40;99.90
8662;DHT22;29684;47.722;9.388;2023-07-13T13:30:26;28.10;99.90
8662;DHT22;29684;47.722;9.388;2023-07-13T13:33:15;28.80;99.90
8662;DHT22;29684;47.722;9.388;2023-07-13T13:36:00;29.50;99.90
8662;DHT22;29684;47.722;9.388;2023-07-13T13:38:44;28.70;99.90
8662;DHT22;29684;47.722;9.388;2023-07-13T13:41:29;28.00;99.90
8662;DHT22;29684;47.722;9.388;2023-07-13T13:44:15;27.40;99.90
8662;DHT22;29684;47.722;9.388;2023-07-13T13:47:00;28.00;99.90
8662;DHT22;29684;47.722;9.388;2023-07-13T13:49:44;28.70;99.90
8662;DHT22;29684;47.722;9.388;2023-07-13T13:52:29;28.80;99.90
8662;DHT22;29684;47.722;9.388;2023-07-13T13:55:14;28.60;99.90
8662;DHT22;29684;47.722;9.388;2023-07-13T13:58:01;28.30;99.90
8662;DHT22;29684;47.722;9.388;2023-07-13T14:00:48;28.80;99.90
8662;DHT22;29684;47.722;9.388;2023-07-13T14:03:34;28.40;99.90
8662;DHT22;29684;47.722;9.388;2023-07-13T14:06:18;28.00;99.90
8662;DHT22;29684;47.722;9.388;2023-07-13T14:09:04;28.10;99.90
8662;DHT22;29684;47.722;9.388;2023-07-13T14:11:52;29.20;99.90
8662;DHT22;29684;47.722;9.388;2023-07-13T14:14:38;29.60;99.90
8662;DHT22;29684;47.722;9.388;2023-07-13T14:17:26;29.00;99.90
8662;DHT22;29684;47.722;9.388;2023-07-13T14:20:12;29.20;99.90
8662;DHT22;29684;47.722;9.388;2023-07-13T14:22:57;29.60;99.90
8662;DHT22;29684;47.722;9.388;2023-07-13T14:25:47;29.70;99.90
8662;DHT22;29684;47.722;9.388;2023-07-13T14:28:32;29.40;99.90
8662;DHT22;29684;47.722;9.388;2023-07-13T14:31:17;29.10;99.90
8662;DHT22;29684;47.722;9.388;2023-07-13T14:34:01;30.00;99.90
8662;DHT22;29684;47.722;9.388;2023-07-13T14:36:48;30.70;99.90
8662;DHT22;29684;47.722;9.388;2023-07-13T14:39:33;29.40;99.90
8662;DHT22;29684;47.722;9.388;2023-07-13T14:42:17;28.70;99.90
8662;DHT22;29684;47.722;9.388;2023-07-13T14:45:02;28.50;99.90
8662;DHT22;29684;47.722;9.388;2023-07-13T14:47:47;28.10;99.90
8662;DHT22;29684;47.722;9.388;2023-07-13T14:50:32;28.70;99.90
8662;DHT22;29684;47.722;9.388;2023-07-13T14:53:17;29.10;99.90
8662;DHT22;29684;47.722;9.388;2023-07-13T14:56:01;29.50;99.90
8662;DHT22;29684;47.722;9.388;2023-07-13T14:58:45;30.40;99.90
8662;DHT22;29684;47.722;9.388;2023-07-13T15:01:29;30.90;99.90
8662;DHT22;29684;47.722;9.388;2023-07-13T15:04:15;30.50;99.90
8662;DHT22;29684;47.722;9.388;2023-07-13T15:07:01;30.50;99.90
8662;DHT22;29684;47.722;9.388;2023-07-13T15:09:47;30.50;99.90
8662;DHT22;29684;47.722;9.388;2023-07-13T15:12:31;30.70;99.90
8662;DHT22;29684;47.722;9.388;2023-07-13T15:15:15;29.50;99.90
8662;DHT22;29684;47.722;9.388;2023-07-13T15:18:00;30.00;99.90
8662;DHT22;29684;47.722;9.388;2023-07-13T15:20:47;30.60;99.90
8662;DHT22;29684;47.722;9.388;2023-07-13T15:23:31;31.10;99.90
8662;DHT22;29684;47.722;9.388;2023-07-13T15:26:17;32.90;99.70
8662;DHT22;29684;47.722;9.388;2023-07-13T15:29:04;33.80;99.00
8662;DHT22;29684;47.722;9.388;2023-07-13T15:31:48;33.70;97.70
8662;DHT22;29684;47.722;9.388;2023-07-13T15:34:32;33.10;97.70
8662;DHT22;29684;47.722;9.388;2023-07-13T15:37:17;32.80;98.30
8662;DHT22;29684;47.722;9.388;2023-07-13T15:40:01;32.80;97.30
8662;DHT22;29684;47.722;9.388;2023-07-13T15:42:45;33.00;97.70
8662;DHT22;29684;47.722;9.388;2023-07-13T15:45:30;33.50;96.70
8662;DHT22;29684;47.722;9.388;2023-07-13T15:48:16;33.20;97.30
8662;DHT22;29684;47.722;9.388;2023-07-13T15:51:04;34.10;98.00
8662;DHT22;29684;47.722;9.388;2023-07-13T15:53:49;34.60;97.50
8662;DHT22;29684;47.722;9.388;2023-07-13T15:56:36;35.10;97.20
8662;DHT22;29684;47.722;9.388;2023-07-13T15:59:22;35.20;96.20
8662;DHT22;29684;47.722;9.388;2023-07-13T16:02:33;35.00;96.30
8662;DHT22;29684;47.722;9.388;2023-07-13T16:05:18;34.60;96.30
8662;DHT22;29684;47.722;9.388;2023-07-13T16:08:04;34.30;95.30
8662;DHT22;29684;47.722;9.388;2023-07-13T16:10:49;33.60;94.40
8662;DHT22;29684;47.722;9.388;2023-07-13T16:13:33;32.10;95.50
8662;DHT22;29684;47.722;9.388;2023-07-13T16:16:17;31.90;96.50
8662;DHT22;29684;47.722;9.388;2023-07-13T16:19:04;32.50;96.20
8662;DHT22;29684;47.722;9.388;2023-07-13T16:21:50;33.20;95.80
8662;DHT22;29684;47.722;9.388;2023-07-13T16:24:34;33.60;96.20
8662;DHT22;29684;47.722;9.388;2023-07-13T16:27:18;33.10;95.50
8662;DHT22;29684;47.722;9.388;2023-07-13T16:30:18;32.80;96.30
8662;DHT22;29684;47.722;9.388;2023-07-13T16:33:03;33.40;96.10
8662;DHT22;29684;47.722;9.388;2023-07-13T16:35:49;34.00;94.70
8662;DHT22;29684;47.722;9.388;2023-07-13T16:38:33;33.70;95.00
8662;DHT22;29684;47.722;9.388;2023-07-13T16:41:17;33.80;95.00
8662;DHT22;29684;47.722;9.388;2023-07-13T16:44:12;33.00;95.60
8662;DHT22;29684;47.722;9.388;2023-07-13T16:46:57;32.80;96.20
8662;DHT22;29684;47.722;9.388;2023-07-13T16:49:45;33.30;95.90
8662;DHT22;29684;47.722;9.388;2023-07-13T16:52:31;32.30;96.50
8662;DHT22;29684;47.722;9.388;2023-07-13T16:55:16;31.70;97.10
8662;DHT22;29684;47.722;9.388;2023-07-13T16:58:02;31.90;97.30
8662;DHT22;29684;47.722;9.388;2023-07-13T17:00:48;32.30;96.70
8662;DHT22;29684;47.722;9.388;2023-07-13T17:03:36;32.00;96.90
8662;DHT22;29684;47.722;9.388;2023-07-13T17:06:24;31.80;96.90
8662;DHT22;29684;47.722;9.388;2023-07-13T17:09:13;31.50;97.30
8662;DHT22;29684;47.722;9.388;2023-07-13T17:11:57;31.60;96.90
8662;DHT22;29684;47.722;9.388;2023-07-13T17:14:41;30.30;98.50
8662;DHT22;29684;47.722;9.388;2023-07-13T17:17:32;29.90;99.30
8662;DHT22;29684;47.722;9.388;2023-07-13T17:20:27;30.50;99.00
8662;DHT22;29684;47.722;9.388;2023-07-13T17:23:16;30.00;99.30
8662;DHT22;29684;47.722;9.388;2023-07-13T17:26:02;29.70;99.70
8662;DHT22;29684;47.722;9.388;2023-07-13T17:28:47;29.30;99.90
8662;DHT22;29684;47.722;9.388;2023-07-13T17:31:31;29.30;99.90
8662;DHT22;29684;47.722;9.388;2023-07-13T17:34:16;29.50;99.90
8662;DHT22;29684;47.722;9.388;2023-07-13T17:37:01;29.30;99.90
8662;DHT22;29684;47.722;9.388;2023-07-13T17:39:45;29.00;99.90
8662;DHT22;29684;47.722;9.388;2023-07-13T17:42:30;29.30;99.90
8662;DHT22;29684;47.722;9.388;2023-07-13T17:45:14;30.70;99.90
8662;DHT22;29684;47.722;9.388;2023-07-13T17:48:04;29.70;99.90
8662;DHT22;29684;47.722;9.388;2023-07-13T17:50:50;29.40;99.90
8662;DHT22;29684;47.722;9.388;2023-07-13T17:53:35;29.00;99.90
8662;DHT22;29684;47.722;9.388;2023-07-13T17:56:19;28.70;99.90
8662;DHT22;29684;47.722;9.388;2023-07-13T17:59:04;28.80;99.90
8662;DHT22;29684;47.722;9.388;2023-07-13T18:01:48;28.90;99.90
8662;DHT22;29684;47.722;9.388;2023-07-13T18:04:33;29.30;99.90
8662;DHT22;29684;47.722;9.388;2023-07-13T18:07:21;29.80;99.90
8662;DHT22;29684;47.722;9.388;2023-07-13T18:10:15;29.60;99.90
8662;DHT22;29684;47.722;9.388;2023-07-13T18:13:00;29.50;99.90
8662;DHT22;29684;47.722;9.388;2023-07-13T18:15:45;29.40;99.90
8662;DHT22;29684;47.722;9.388;2023-07-13T18:18:30;28.70;99.90
8662;DHT22;29684;47.722;9.388;2023-07-13T18:21:17;29.00;99.90
8662;DHT22;29684;47.722;9.388;2023-07-13T18:24:02;28.70;99.90
8662;DHT22;29684;47.722;9.388;2023-07-13T18:26:48;29.10;99.90